sensor_id;sensor_type;location;lat;lon;timestamp;pressure;altitude;pressure_sealevel;temperature;humidity
82416;BME280;72058;47.782;10.618;2024-01-16T00:00:11;92711.81;;;-1.55;57.24
82416;BME280;72058;47.782;10.618;2024-01-16T00:02:36;92718.75;;;-1.54;57.41
82416;BME280;72058;47.782;10.618;2024-01-16T00:05:01;92726.72;;;-1.64;57.34
82416;BME280;72058;47.782;10.618;2024-01-16T00:07:28;92721.34;;;-1.84;57.63
82416;BME280;72058;47.782;10.618;2024-01-16T00:09:53;92729.63;;;-1.81;57.90
82416;BME280;72058;47.782;10.618;2024-01-16T00:12:19;92730.94;;;-1.83;57.73
82416;BME280;72058;47.782;10.618;2024-01-16T00:14:44;92734.47;;;-1.63;57.29
82416;BME280;72058;47.782;10.618;2024-01-16T00:17:10;92734.66;;;-1.95;58.06
82416;BME280;72058;47.782;10.618;2024-01-16T00:19:36;92733.09;;;-1.75;58.09
82416;BME280;72058;47.782;10.618;2024-01-16T00:22:02;92739.53;;;-1.56;58.21
82416;BME280;72058;47.782;10.618;2024-01-16T00:24:29;92739.03;;;-1.53;57.88
82416;BME280;72058;47.782;10.618;2024-01-16T00:26:55;92736.88;;;-1.41;57.64
82416;BME280;72058;47.782;10.618;2024-01-16T00:29:20;92737.16;;;-1.37;57.52
82416;BME280;72058;47.782;10.618;2024-01-16T00:31:46;92742.75;;;-1.39;57.40
82416;BME280;72058;47.782;10.618;2024-01-16T00:34:11;92737.97;;;-1.37;57.56
82416;BME280;72058;47.782;10.618;2024-01-16T00:36:36;92745.97;;;-1.37;57.15
82416;BME280;72058;47.782;10.618;2024-01-16T00:39:02;92744.66;;;-1.34;56.93
82416;BME280;72058;47.782;10.618;2024-01-16T00:41:28;92744.91;;;-1.36;56.83
82416;BME280;72058;47.782;10.618;2024-01-16T00:43:54;92749.16;;;-1.40;57.23
82416;BME280;72058;47.782;10.618;2024-01-16T00:46:19;92747.03;;;-1.38;57.13
82416;BME280;72058;47.782;10.618;2024-01-16T00:48:45;92760.66;;;-1.34;57.02
82416;BME280;72058;47.782;10.618;2024-01-16T00:51:11;92754.22;;;-1.38;57.10
82416;BME280;72058;47.782;10.618;2024-01-16T00:53:42;92752.38;;;-1.33;57.03
82416;BME280;72058;47.782;10.618;2024-01-16T00:56:08;92754.22;;;-1.38;56.85
82416;BME280;72058;47.782;10.618;2024-01-16T00:58:34;92753.72;;;-1.35;56.87
82416;BME280;72058;47.782;10.618;2024-01-16T01:00:59;92764.63;;;-1.47;57.37
82416;BME280;72058;47.782;10.618;2024-01-16T01:03:24;92759.84;;;-1.45;57.23
82416;BME280;72058;47.782;10.618;2024-01-16T01:05:50;92767.03;;;-1.40;56.89
82416;BME280;72058;47.782;10.618;2024-01-16T01:08:16;92757.72;;;-1.43;56.97
82416;BME280;72058;47.782;10.618;2024-01-16T01:10:41;92758.47;;;-1.47;57.11
82416;BME280;72058;47.782;10.618;2024-01-16T01:13:07;92761.66;;;-1.50;56.83
82416;BME280;72058;47.782;10.618;2024-01-16T01:15:32;92764.34;;;-1.45;57.12
82416;BME280;72058;47.782;10.618;2024-01-16T01:17:57;92767.84;;;-1.45;57.15
82416;BME280;72058;47.782;10.618;2024-01-16T01:20:23;92771.56;;;-1.41;56.90
82416;BME280;72058;47.782;10.618;2024-01-16T01:22:48;92776.09;;;-1.51;56.76
82416;BME280;72058;47.782;10.618;2024-01-16T01:25:13;92773.13;;;-1.60;57.15
82416;BME280;72058;47.782;10.618;2024-01-16T01:27:39;92778.19;;;-1.59;57.22
82416;BME280;72058;47.782;10.618;2024-01-16T01:30:08;92773.94;;;-1.60;56.69
82416;BME280;72058;47.782;10.618;2024-01-16T01:32:37;92773.88;;;-1.80;57.33
82416;BME280;72058;47.782;10.618;2024-01-16T01:35:04;92785.22;;;-2.00;57.70
82416;BME280;72058;47.782;10.618;2024-01-16T01:37:29;92784.19;;;-1.99;57.78
82416;BME280;72058;47.782;10.618;2024-01-16T01:39:55;92792.59;;;-2.22;58.42
82416;BME280;72058;47.782;10.618;2024-01-16T01:42:20;92792.59;;;-2.27;58.68
82416;BME280;72058;47.782;10.618;2024-01-16T01:44:45;92793.63;;;-2.28;58.71
82416;BME280;72058;47.782;10.618;2024-01-16T01:47:11;92788.56;;;-2.35;59.03
82416;BME280;72058;47.782;10.618;2024-01-16T01:49:37;92790.44;;;-2.30;59.17
82416;BME280;72058;47.782;10.618;2024-01-16T01:52:04;92795.69;;;-2.40;59.63
82416;BME280;72058;47.782;10.618;2024-01-16T01:54:32;92790.63;;;-2.42;59.82
82416;BME280;72058;47.782;10.618;2024-01-16T01:56:58;92791.88;;;-2.54;59.80
82416;BME280;72058;47.782;10.618;2024-01-16T01:59:24;92791.31;;;-2.61;60.76
82416;BME280;72058;47.782;10.618;2024-01-16T02:01:51;92790.78;;;-2.58;60.57
82416;BME280;72058;47.782;10.618;2024-01-16T02:04:19;92800.13;;;-2.56;60.29
82416;BME280;72058;47.782;10.618;2024-01-16T02:06:44;92806.00;;;-2.54;60.36
82416;BME280;72058;47.782;10.618;2024-01-16T02:09:13;92804.94;;;-2.53;60.60
82416;BME280;72058;47.782;10.618;2024-01-16T02:11:42;92802.31;;;-2.48;60.50
82416;BME280;72058;47.782;10.618;2024-01-16T02:14:08;92805.47;;;-2.51;60.92
82416;BME280;72058;47.782;10.618;2024-01-16T02:16:39;92802.50;;;-2.59;61.31
82416;BME280;72058;47.782;10.618;2024-01-16T02:19:05;92804.38;;;-2.55;60.97
82416;BME280;72058;47.782;10.618;2024-01-16T02:21:36;92800.13;;;-2.56;61.00
82416;BME280;72058;47.782;10.618;2024-01-16T02:24:03;92805.69;;;-2.57;61.27
82416;BME280;72058;47.782;10.618;2024-01-16T02:26:30;92802.78;;;-2.56;61.12
82416;BME280;72058;47.782;10.618;2024-01-16T02:28:56;92804.13;;;-2.53;61.03
82416;BME280;72058;47.782;10.618;2024-01-16T02:31:21;92801.22;;;-2.52;61.03
82416;BME280;72058;47.782;10.618;2024-01-16T02:33:46;92807.72;;;-2.33;60.76
82416;BME280;72058;47.782;10.618;2024-01-16T02:36:12;92795.25;;;-2.22;59.79
82416;BME280;72058;47.782;10.618;2024-01-16T02:38:37;92794.78;;;-2.14;59.89
82416;BME280;72058;47.782;10.618;2024-01-16T02:41:03;92802.50;;;-2.12;59.36
82416;BME280;72058;47.782;10.618;2024-01-16T02:43:28;92787.31;;;-2.12;59.18
82416;BME280;72058;47.782;10.618;2024-01-16T02:45:54;92793.47;;;-2.11;59.08
82416;BME280;72058;47.782;10.618;2024-01-16T02:48:19;92788.94;;;-2.11;59.04
82416;BME280;72058;47.782;10.618;2024-01-16T02:50:45;92802.25;;;-2.06;59.23
82416;BME280;72058;47.782;10.618;2024-01-16T02:53:11;92793.41;;;-2.16;59.04
82416;BME280;72058;47.782;10.618;2024-01-16T02:55:36;92798.50;;;-2.15;59.53
82416;BME280;72058;47.782;10.618;2024-01-16T02:58:02;92799.81;;;-2.17;59.20
82416;BME280;72058;47.782;10.618;2024-01-16T03:00:28;92801.69;;;-2.13;59.21
82416;BME280;72058;47.782;10.618;2024-01-16T03:02:54;92800.66;;;-2.12;59.32
82416;BME280;72058;47.782;10.618;2024-01-16T03:05:19;92804.13;;;-2.06;59.46
82416;BME280;72058;47.782;10.618;2024-01-16T03:07:45;92803.56;;;-2.08;59.17
82416;BME280;72058;47.782;10.618;2024-01-16T03:10:10;92810.28;;;-2.01;59.49
82416;BME280;72058;47.782;10.618;2024-01-16T03:12:36;92809.00;;;-1.93;59.44
82416;BME280;72058;47.782;10.618;2024-01-16T03:15:02;92808.72;;;-1.92;58.89
82416;BME280;72058;47.782;10.618;2024-01-16T03:17:28;92812.91;;;-2.06;59.45
82416;BME280;72058;47.782;10.618;2024-01-16T03:19:53;92812.34;;;-2.18;59.82
82416;BME280;72058;47.782;10.618;2024-01-16T03:22:18;92819.22;;;-2.22;59.96
82416;BME280;72058;47.782;10.618;2024-01-16T03:24:44;92811.84;;;-2.10;60.52
82416;BME280;72058;47.782;10.618;2024-01-16T03:27:09;92803.88;;;-2.10;60.46
82416;BME280;72058;47.782;10.618;2024-01-16T03:29:34;92806.78;;;-2.11;60.19
82416;BME280;72058;47.782;10.618;2024-01-16T03:32:00;92813.91;;;-2.22;60.36
82416;BME280;72058;47.782;10.618;2024-01-16T03:34:26;92807.78;;;-2.22;60.42
82416;BME280;72058;47.782;10.618;2024-01-16T03:36:52;92809.44;;;-2.11;60.83
82416;BME280;72058;47.782;10.618;2024-01-16T03:39:17;92808.59;;;-2.17;60.74
82416;BME280;72058;47.782;10.618;2024-01-16T03:41:43;92816.06;;;-2.14;61.11
82416;BME280;72058;47.782;10.618;2024-01-16T03:44:09;92811.34;;;-2.02;60.89
82416;BME280;72058;47.782;10.618;2024-01-16T03:46:34;92812.09;;;-2.11;61.18
82416;BME280;72058;47.782;10.618;2024-01-16T03:48:59;92809.19;;;-2.10;60.90
82416;BME280;72058;47.782;10.618;2024-01-16T03:51:25;92803.31;;;-2.12;61.40
82416;BME280;72058;47.782;10.618;2024-01-16T03:53:50;92806.22;;;-2.18;60.97
82416;BME280;72058;47.782;10.618;2024-01-16T03:56:16;92803.06;;;-2.05;60.97
82416;BME280;72058;47.782;10.618;2024-01-16T03:58:42;92803.38;;;-1.97;61.82
82416;BME280;72058;47.782;10.618;2024-01-16T04:01:08;92799.97;;;-1.87;61.34
82416;BME280;72058;47.782;10.618;2024-01-16T04:03:33;92795.47;;;-1.71;61.22
82416;BME280;72058;47.782;10.618;2024-01-16T04:06:00;92791.50;;;-1.69;61.37
82416;BME280;72058;47.782;10.618;2024-01-16T04:08:25;92793.63;;;-1.71;61.35
82416;BME280;72058;47.782;10.618;2024-01-16T04:10:50;92792.50;;;-1.85;61.83
82416;BME280;72058;47.782;10.618;2024-01-16T04:13:16;92790.06;;;-1.92;62.45
82416;BME280;72058;47.782;10.618;2024-01-16T04:15:41;92790.06;;;-1.97;62.59
82416;BME280;72058;47.782;10.618;2024-01-16T04:18:07;92784.16;;;-2.04;63.00
82416;BME280;72058;47.782;10.618;2024-01-16T04:20:32;92785.97;;;-2.19;62.88
82416;BME280;72058;47.782;10.618;2024-01-16T04:22:57;92776.63;;;-2.22;62.80
82416;BME280;72058;47.782;10.618;2024-01-16T04:25:23;92780.31;;;-2.28;63.19
82416;BME280;72058;47.782;10.618;2024-01-16T04:27:49;92770.72;;;-2.29;63.23
82416;BME280;72058;47.782;10.618;2024-01-16T04:30:14;92776.06;;;-2.29;63.17
82416;BME280;72058;47.782;10.618;2024-01-16T04:32:40;92781.88;;;-2.37;63.89
82416;BME280;72058;47.782;10.618;2024-01-16T04:35:05;92782.94;;;-2.33;64.02
82416;BME280;72058;47.782;10.618;2024-01-16T04:37:30;92787.94;;;-2.42;64.47
82416;BME280;72058;47.782;10.618;2024-01-16T04:39:56;92782.34;;;-2.45;64.50
82416;BME280;72058;47.782;10.618;2024-01-16T04:42:23;92786.38;;;-2.43;64.47
82416;BME280;72058;47.782;10.618;2024-01-16T04:44:48;92777.63;;;-2.33;64.30
82416;BME280;72058;47.782;10.618;2024-01-16T04:47:13;92775.19;;;-2.40;64.34
82416;BME280;72058;47.782;10.618;2024-01-16T04:49:51;92775.91;;;-2.54;64.88
82416;BME280;72058;47.782;10.618;2024-01-16T04:52:16;92772.31;;;-2.75;65.04
82416;BME280;72058;47.782;10.618;2024-01-16T04:54:41;92785.94;;;-2.67;65.51
82416;BME280;72058;47.782;10.618;2024-01-16T04:57:07;92777.94;;;-2.72;65.66
82416;BME280;72058;47.782;10.618;2024-01-16T04:59:32;92785.66;;;-2.70;65.50
82416;BME280;72058;47.782;10.618;2024-01-16T05:01:58;92776.34;;;-2.68;64.89
82416;BME280;72058;47.782;10.618;2024-01-16T05:04:23;92787.41;;;-2.86;65.42
82416;BME280;72058;47.782;10.618;2024-01-16T05:06:51;92780.19;;;-2.90;65.60
82416;BME280;72058;47.782;10.618;2024-01-16T05:09:17;92779.91;;;-2.94;66.27
82416;BME280;72058;47.782;10.618;2024-01-16T05:11:44;92778.91;;;-2.83;65.37
82416;BME280;72058;47.782;10.618;2024-01-16T05:14:10;92772.75;;;-2.88;65.56
82416;BME280;72058;47.782;10.618;2024-01-16T05:16:35;92783.31;;;-3.30;66.77
82416;BME280;72058;47.782;10.618;2024-01-16T05:19:00;92782.19;;;-3.34;66.99
82416;BME280;72058;47.782;10.618;2024-01-16T05:21:26;92773.59;;;-3.47;67.42
82416;BME280;72058;47.782;10.618;2024-01-16T05:23:51;92778.16;;;-3.42;67.49
82416;BME280;72058;47.782;10.618;2024-01-16T05:26:17;92770.66;;;-3.18;66.88
82416;BME280;72058;47.782;10.618;2024-01-16T05:28:42;92767.25;;;-3.09;66.65
82416;BME280;72058;47.782;10.618;2024-01-16T05:31:08;92770.00;;;-3.35;67.25
82416;BME280;72058;47.782;10.618;2024-01-16T05:33:33;92759.66;;;-3.59;67.58
82416;BME280;72058;47.782;10.618;2024-01-16T05:35:58;92764.88;;;-3.69;68.32
82416;BME280;72058;47.782;10.618;2024-01-16T05:38:24;92756.19;;;-3.32;67.33
82416;BME280;72058;47.782;10.618;2024-01-16T05:40:49;92758.81;;;-3.37;67.18
82416;BME280;72058;47.782;10.618;2024-01-16T05:43:14;92753.00;;;-3.61;67.43
82416;BME280;72058;47.782;10.618;2024-01-16T05:45:40;92743.34;;;-3.67;67.74
82416;BME280;72058;47.782;10.618;2024-01-16T05:48:06;92748.03;;;-3.79;68.13
82416;BME280;72058;47.782;10.618;2024-01-16T05:50:34;92746.28;;;-3.69;67.76
82416;BME280;72058;47.782;10.618;2024-01-16T05:53:00;92743.19;;;-3.61;67.28
82416;BME280;72058;47.782;10.618;2024-01-16T05:55:25;92752.19;;;-3.62;67.41
82416;BME280;72058;47.782;10.618;2024-01-16T05:57:50;92744.56;;;-3.80;67.87
82416;BME280;72058;47.782;10.618;2024-01-16T06:00:16;92754.16;;;-3.79;68.08
82416;BME280;72058;47.782;10.618;2024-01-16T06:02:43;92745.50;;;-3.37;66.65
82416;BME280;72058;47.782;10.618;2024-01-16T06:05:08;92744.38;;;-3.73;67.61
82416;BME280;72058;47.782;10.618;2024-01-16T06:07:34;92747.59;;;-3.93;68.63
82416;BME280;72058;47.782;10.618;2024-01-16T06:09:59;92745.66;;;-4.03;68.71
82416;BME280;72058;47.782;10.618;2024-01-16T06:12:24;92738.84;;;-4.21;69.14
82416;BME280;72058;47.782;10.618;2024-01-16T06:14:50;92744.00;;;-4.31;68.41
82416;BME280;72058;47.782;10.618;2024-01-16T06:17:15;92738.75;;;-4.47;69.13
82416;BME280;72058;47.782;10.618;2024-01-16T06:19:40;92743.22;;;-4.53;69.78
82416;BME280;72058;47.782;10.618;2024-01-16T06:22:06;92739.00;;;-4.49;69.33
82416;BME280;72058;47.782;10.618;2024-01-16T06:24:31;92737.22;;;-4.65;70.51
82416;BME280;72058;47.782;10.618;2024-01-16T06:27:05;92739.19;;;-4.77;69.87
82416;BME280;72058;47.782;10.618;2024-01-16T06:29:31;92732.94;;;-4.88;69.93
82416;BME280;72058;47.782;10.618;2024-01-16T06:31:57;92726.25;;;-4.90;70.14
82416;BME280;72058;47.782;10.618;2024-01-16T06:34:22;92727.06;;;-4.90;70.24
82416;BME280;72058;47.782;10.618;2024-01-16T06:36:47;92726.97;;;-4.78;70.38
82416;BME280;72058;47.782;10.618;2024-01-16T06:39:13;92735.16;;;-4.80;69.96
82416;BME280;72058;47.782;10.618;2024-01-16T06:41:40;92728.28;;;-4.98;70.13
82416;BME280;72058;47.782;10.618;2024-01-16T06:44:06;92741.38;;;-5.08;70.17
82416;BME280;72058;47.782;10.618;2024-01-16T06:46:32;92745.41;;;-5.05;70.59
82416;BME280;72058;47.782;10.618;2024-01-16T06:48:57;92746.22;;;-5.05;70.47
82416;BME280;72058;47.782;10.618;2024-01-16T06:51:22;92739.69;;;-4.97;70.71
82416;BME280;72058;47.782;10.618;2024-01-16T06:53:48;92745.94;;;-4.86;70.46
82416;BME280;72058;47.782;10.618;2024-01-16T06:56:13;92736.81;;;-4.95;70.54
82416;BME280;72058;47.782;10.618;2024-01-16T06:58:39;92740.97;;;-5.00;70.49
82416;BME280;72058;47.782;10.618;2024-01-16T07:01:04;92735.38;;;-5.03;70.62
82416;BME280;72058;47.782;10.618;2024-01-16T07:03:30;92735.53;;;-5.10;70.15
82416;BME280;72058;47.782;10.618;2024-01-16T07:05:55;92736.84;;;-5.12;70.34
82416;BME280;72058;47.782;10.618;2024-01-16T07:08:20;92737.47;;;-5.05;70.46
82416;BME280;72058;47.782;10.618;2024-01-16T07:10:46;92737.75;;;-5.02;70.47
82416;BME280;72058;47.782;10.618;2024-01-16T07:13:11;92744.75;;;-4.95;70.46
82416;BME280;72058;47.782;10.618;2024-01-16T07:15:37;92739.81;;;-4.70;71.20
82416;BME280;72058;47.782;10.618;2024-01-16T07:18:03;92735.38;;;-4.65;70.71
82416;BME280;72058;47.782;10.618;2024-01-16T07:20:28;92734.56;;;-4.65;70.62
82416;BME280;72058;47.782;10.618;2024-01-16T07:22:55;92743.66;;;-4.61;71.00
82416;BME280;72058;47.782;10.618;2024-01-16T07:25:20;92738.28;;;-4.44;71.06
82416;BME280;72058;47.782;10.618;2024-01-16T07:27:45;92733.41;;;-4.31;70.80
82416;BME280;72058;47.782;10.618;2024-01-16T07:30:14;92742.66;;;-4.11;70.53
82416;BME280;72058;47.782;10.618;2024-01-16T07:32:40;92752.16;;;-3.94;70.65
82416;BME280;72058;47.782;10.618;2024-01-16T07:35:06;92752.78;;;-3.82;69.58
82416;BME280;72058;47.782;10.618;2024-01-16T07:37:31;92755.47;;;-3.76;68.52
82416;BME280;72058;47.782;10.618;2024-01-16T07:39:56;92749.75;;;-3.68;68.01
82416;BME280;72058;47.782;10.618;2024-01-16T07:42:22;92746.56;;;-3.65;67.61
82416;BME280;72058;47.782;10.618;2024-01-16T07:44:47;92739.75;;;-3.83;68.45
82416;BME280;72058;47.782;10.618;2024-01-16T07:47:12;92750.72;;;-3.74;68.72
82416;BME280;72058;47.782;10.618;2024-01-16T07:49:38;92748.53;;;-3.83;69.32
82416;BME280;72058;47.782;10.618;2024-01-16T07:52:04;92741.97;;;-3.75;69.44
82416;BME280;72058;47.782;10.618;2024-01-16T07:54:29;92740.16;;;-3.69;69.54
82416;BME280;72058;47.782;10.618;2024-01-16T07:56:56;92746.09;;;-3.62;69.89
82416;BME280;72058;47.782;10.618;2024-01-16T07:59:21;92732.03;;;-3.58;69.25
82416;BME280;72058;47.782;10.618;2024-01-16T08:01:47;92742.84;;;-3.37;69.15
82416;BME280;72058;47.782;10.618;2024-01-16T08:04:12;92751.97;;;-3.28;68.92
82416;BME280;72058;47.782;10.618;2024-01-16T08:06:37;92749.41;;;-3.18;68.12
82416;BME280;72058;47.782;10.618;2024-01-16T08:09:03;92749.06;;;-3.27;67.69
82416;BME280;72058;47.782;10.618;2024-01-16T08:11:28;92739.59;;;-3.45;68.02
82416;BME280;72058;47.782;10.618;2024-01-16T08:13:54;92737.19;;;-3.46;68.35
82416;BME280;72058;47.782;10.618;2024-01-16T08:16:19;92730.75;;;-3.50;68.54
82416;BME280;72058;47.782;10.618;2024-01-16T08:18:46;92729.78;;;-3.44;68.60
82416;BME280;72058;47.782;10.618;2024-01-16T08:21:11;92736.13;;;-3.45;69.36
82416;BME280;72058;47.782;10.618;2024-01-16T08:23:37;92729.91;;;-3.29;68.56
82416;BME280;72058;47.782;10.618;2024-01-16T08:26:02;92725.97;;;-3.21;67.99
82416;BME280;72058;47.782;10.618;2024-01-16T08:28:27;92723.88;;;-3.14;67.78
82416;BME280;72058;47.782;10.618;2024-01-16T08:30:53;92726.88;;;-3.06;67.11
82416;BME280;72058;47.782;10.618;2024-01-16T08:33:18;92730.81;;;-3.13;67.09
82416;BME280;72058;47.782;10.618;2024-01-16T08:35:46;92737.28;;;-2.99;67.06
82416;BME280;72058;47.782;10.618;2024-01-16T08:38:12;92738.91;;;-2.98;66.62
82416;BME280;72058;47.782;10.618;2024-01-16T08:40:37;92734.47;;;-2.87;66.82
82416;BME280;72058;47.782;10.618;2024-01-16T08:43:03;92727.22;;;-2.92;66.79
82416;BME280;72058;47.782;10.618;2024-01-16T08:45:29;92726.22;;;-2.86;66.62
82416;BME280;72058;47.782;10.618;2024-01-16T08:47:54;92728.59;;;-2.84;66.65
82416;BME280;72058;47.782;10.618;2024-01-16T08:50:20;92727.03;;;-2.80;66.70
82416;BME280;72058;47.782;10.618;2024-01-16T08:52:45;92729.53;;;-2.69;66.66
82416;BME280;72058;47.782;10.618;2024-01-16T08:55:10;92719.16;;;-2.65;66.73
82416;BME280;72058;47.782;10.618;2024-01-16T08:57:39;92713.59;;;-2.58;66.35
82416;BME280;72058;47.782;10.618;2024-01-16T09:00:07;92720.44;;;-2.73;66.87
82416;BME280;72058;47.782;10.618;2024-01-16T09:02:37;92712.34;;;-2.41;65.72
82416;BME280;72058;47.782;10.618;2024-01-16T09:05:03;92712.25;;;-2.61;66.73
82416;BME280;72058;47.782;10.618;2024-01-16T09:07:30;92722.94;;;-2.56;66.96
82416;BME280;72058;47.782;10.618;2024-01-16T09:09:55;92721.69;;;-2.33;65.84
82416;BME280;72058;47.782;10.618;2024-01-16T09:12:20;92709.44;;;-2.34;66.33
82416;BME280;72058;47.782;10.618;2024-01-16T09:14:46;92713.50;;;-2.16;66.34
82416;BME280;72058;47.782;10.618;2024-01-16T09:17:11;92704.22;;;-2.09;65.54
82416;BME280;72058;47.782;10.618;2024-01-16T09:19:37;92711.63;;;-2.26;65.88
82416;BME280;72058;47.782;10.618;2024-01-16T09:22:02;92707.63;;;-2.23;66.69
82416;BME280;72058;47.782;10.618;2024-01-16T09:24:29;92705.22;;;-2.25;66.71
82416;BME280;72058;47.782;10.618;2024-01-16T09:26:54;92704.78;;;-2.02;66.26
82416;BME280;72058;47.782;10.618;2024-01-16T09:29:20;92706.41;;;-1.96;66.29
82416;BME280;72058;47.782;10.618;2024-01-16T09:31:46;92697.81;;;-2.08;66.10
82416;BME280;72058;47.782;10.618;2024-01-16T09:34:12;92707.19;;;-1.90;66.23
82416;BME280;72058;47.782;10.618;2024-01-16T09:36:39;92703.00;;;-1.76;65.02
82416;BME280;72058;47.782;10.618;2024-01-16T09:39:05;92699.00;;;-1.48;64.09
82416;BME280;72058;47.782;10.618;2024-01-16T09:41:36;92705.41;;;-1.64;64.63
82416;BME280;72058;47.782;10.618;2024-01-16T09:44:01;92704.03;;;-1.67;64.62
82416;BME280;72058;47.782;10.618;2024-01-16T09:46:28;92711.53;;;-1.48;64.26
82416;BME280;72058;47.782;10.618;2024-01-16T09:48:55;92704.34;;;-1.63;64.28
82416;BME280;72058;47.782;10.618;2024-01-16T09:51:21;92702.22;;;-1.56;64.70
82416;BME280;72058;47.782;10.618;2024-01-16T09:53:46;92696.34;;;-1.58;64.34
82416;BME280;72058;47.782;10.618;2024-01-16T09:56:16;92682.75;;;-1.51;64.34
82416;BME280;72058;47.782;10.618;2024-01-16T09:58:43;92686.78;;;-1.44;64.42
82416;BME280;72058;47.782;10.618;2024-01-16T10:01:11;92684.09;;;-1.44;64.66
82416;BME280;72058;47.782;10.618;2024-01-16T10:03:37;92682.50;;;-1.45;63.97
82416;BME280;72058;47.782;10.618;2024-01-16T10:06:04;92670.22;;;-1.46;63.99
82416;BME280;72058;47.782;10.618;2024-01-16T10:08:31;92677.69;;;-1.38;64.54
82416;BME280;72058;47.782;10.618;2024-01-16T10:10:57;92676.63;;;-1.37;64.49
82416;BME280;72058;47.782;10.618;2024-01-16T10:13:23;92674.22;;;-1.23;64.18
82416;BME280;72058;47.782;10.618;2024-01-16T10:15:51;92677.41;;;-1.16;63.83
82416;BME280;72058;47.782;10.618;2024-01-16T10:18:28;92668.91;;;-1.18;63.73
82416;BME280;72058;47.782;10.618;2024-01-16T10:20:57;92674.75;;;-1.21;63.36
82416;BME280;72058;47.782;10.618;2024-01-16T10:23:27;92668.63;;;-1.22;63.76
82416;BME280;72058;47.782;10.618;2024-01-16T10:26:09;92667.53;;;-1.05;63.06
82416;BME280;72058;47.782;10.618;2024-01-16T10:28:36;92666.22;;;-0.93;63.07
82416;BME280;72058;47.782;10.618;2024-01-16T10:31:07;92657.38;;;-0.88;62.81
82416;BME280;72058;47.782;10.618;2024-01-16T10:33:32;92655.25;;;-0.96;62.57
82416;BME280;72058;47.782;10.618;2024-01-16T10:36:08;92642.97;;;-0.97;62.22
82416;BME280;72058;47.782;10.618;2024-01-16T10:38:37;92648.84;;;-1.00;62.53
82416;BME280;72058;47.782;10.618;2024-01-16T10:41:16;92649.09;;;-0.87;63.26
82416;BME280;72058;47.782;10.618;2024-01-16T10:44:03;92635.41;;;-0.65;62.79
82416;BME280;72058;47.782;10.618;2024-01-16T10:46:29;92636.19;;;-0.54;61.67
82416;BME280;72058;47.782;10.618;2024-01-16T10:49:04;92636.41;;;-0.41;59.72
82416;BME280;72058;47.782;10.618;2024-01-16T10:51:30;92635.38;;;-0.45;60.21
82416;BME280;72058;47.782;10.618;2024-01-16T10:54:03;92638.28;;;-0.41;59.18
82416;BME280;72058;47.782;10.618;2024-01-16T10:56:31;92631.06;;;-0.41;58.64
82416;BME280;72058;47.782;10.618;2024-01-16T10:59:18;92632.97;;;-0.46;59.46
82416;BME280;72058;47.782;10.618;2024-01-16T11:01:48;92634.84;;;-0.52;58.90
82416;BME280;72058;47.782;10.618;2024-01-16T11:04:15;92624.19;;;-0.52;58.47
82416;BME280;72058;47.782;10.618;2024-01-16T11:06:42;92642.06;;;-0.52;58.97
82416;BME280;72058;47.782;10.618;2024-01-16T11:09:09;92625.22;;;-0.48;59.76
82416;BME280;72058;47.782;10.618;2024-01-16T11:11:34;92623.81;;;-0.30;59.29
82416;BME280;72058;47.782;10.618;2024-01-16T11:14:03;92614.75;;;-0.39;59.91
82416;BME280;72058;47.782;10.618;2024-01-16T11:16:31;92618.19;;;-0.28;58.72
82416;BME280;72058;47.782;10.618;2024-01-16T11:18:57;92614.44;;;-0.27;58.84
82416;BME280;72058;47.782;10.618;2024-01-16T11:21:23;92618.28;;;-0.44;59.10
82416;BME280;72058;47.782;10.618;2024-01-16T11:23:49;92610.19;;;-0.33;59.78
82416;BME280;72058;47.782;10.618;2024-01-16T11:26:31;92613.69;;;-0.38;60.18
82416;BME280;72058;47.782;10.618;2024-01-16T11:31:53;92601.53;;;-0.10;59.17
82416;BME280;72058;47.782;10.618;2024-01-16T11:37:07;92605.81;;;-0.09;59.22
82416;BME280;72058;47.782;10.618;2024-01-16T11:39:33;92610.53;;;0.04;60.30
82416;BME280;72058;47.782;10.618;2024-01-16T11:41:59;92607.28;;;0.12;59.90
82416;BME280;72058;47.782;10.618;2024-01-16T11:44:40;92602.41;;;0.19;59.23
82416;BME280;72058;47.782;10.618;2024-01-16T11:47:06;92598.63;;;0.25;60.61
82416;BME280;72058;47.782;10.618;2024-01-16T11:49:34;92594.38;;;0.19;58.69
82416;BME280;72058;47.782;10.618;2024-01-16T11:51:59;92588.00;;;0.15;57.99
82416;BME280;72058;47.782;10.618;2024-01-16T11:54:26;92577.88;;;0.12;57.61
82416;BME280;72058;47.782;10.618;2024-01-16T12:02:21;92579.78;;;0.07;57.96
82416;BME280;72058;47.782;10.618;2024-01-16T12:04:53;92575.94;;;0.18;59.03
82416;BME280;72058;47.782;10.618;2024-01-16T12:07:21;92580.00;;;0.10;57.95
82416;BME280;72058;47.782;10.618;2024-01-16T12:09:47;92569.31;;;0.15;58.98
82416;BME280;72058;47.782;10.618;2024-01-16T12:12:15;92565.97;;;0.28;58.53
82416;BME280;72058;47.782;10.618;2024-01-16T12:14:40;92557.88;;;0.38;57.91
82416;BME280;72058;47.782;10.618;2024-01-16T12:17:12;92549.72;;;0.54;58.31
82416;BME280;72058;47.782;10.618;2024-01-16T12:19:38;92553.19;;;0.54;56.98
82416;BME280;72058;47.782;10.618;2024-01-16T12:22:09;92546.03;;;0.50;57.40
82416;BME280;72058;47.782;10.618;2024-01-16T12:24:38;92548.72;;;0.50;57.70
82416;BME280;72058;47.782;10.618;2024-01-16T12:27:04;92545.53;;;0.43;57.54
82416;BME280;72058;47.782;10.618;2024-01-16T12:29:30;92539.34;;;0.47;57.18
82416;BME280;72058;47.782;10.618;2024-01-16T12:32:08;92534.53;;;0.49;57.51
82416;BME280;72058;47.782;10.618;2024-01-16T12:34:35;92526.44;;;0.54;58.77
82416;BME280;72058;47.782;10.618;2024-01-16T12:37:08;92510.06;;;0.61;58.58
82416;BME280;72058;47.782;10.618;2024-01-16T12:39:34;92512.09;;;0.74;58.75
82416;BME280;72058;47.782;10.618;2024-01-16T12:42:01;92503.09;;;0.89;57.61
82416;BME280;72058;47.782;10.618;2024-01-16T12:44:27;92497.03;;;0.78;56.69
82416;BME280;72058;47.782;10.618;2024-01-16T12:46:56;92498.75;;;0.69;56.64
82416;BME280;72058;47.782;10.618;2024-01-16T12:49:23;92498.75;;;0.69;56.76
82416;BME280;72058;47.782;10.618;2024-01-16T12:51:49;92494.53;;;0.63;57.46
82416;BME280;72058;47.782;10.618;2024-01-16T12:54:17;92483.66;;;0.54;57.99
82416;BME280;72058;47.782;10.618;2024-01-16T12:56:43;92483.28;;;0.66;59.67